East Gillespie, Illinois
Current Conditions -  °F | °C
As of 8:35 PM on Friday 28 Nov 2014 (Local Time) from K3LF Reporting Station
Clear Clear  
Wind Chill: 29°   Ceiling: Unl
Heat Index: 38°   Visibility: 10mi
Dew Point: 32°   Wind: 15mph
Humidity: 79%   Direction: 160°SSE
Pressure: 29.92"   Gusts: NA
Location:  39.1304°N, 89.8405°W
Report Text: K3LF 290235Z AUTO 16013KT 10SM CLR 03/00 A2992 RMK AO2 T00340000
Loading
Personal Weather Stations






























Interactive Weather Map New forecast layout! Learn more

10-Day Weather Forecast

Advertisements
Track Severe Weather on mobile